LGHI/JKH METAR and TAF weather

Enter ICAO airport designator
Station Type Date Time Source
LGHI METAR 2024/07/23 17:50 UTC NOAA

LGHI 231750Z 36005KT CAVOK 34/29 Q1005


Station Type Date Time Source
LGHI Decoded METAR 2024/07/23 17:50 UTC NOAA

Chios Airport , Greece (LGHI) 38-20N 026-08E 4M
Jul 23, 2024 - 01:50 PM EDT / 2024.07.23 1750 UTC
Wind: from the N (360 degrees) at 6 MPH (5 KT):0
Visibility: greater than 7 mile(s):0
Temperature: 93 F (34 C)
Heat index: 120.2 F (49.0 C):1
Dew Point: 84 F (29 C)
Relative Humidity: 75%
Pressure (altimeter): 29.68 in. Hg (1005 hPa)
ob: LGHI 231750Z 36005KT CAVOK 34/29 Q1005
cycle: 18

Station Type Date Time Source
LGHI TAF 2024/03/20 18:12 UTC NOAA